sensor_id;sensor_type;location;lat;lon;timestamp;P1;durP1;ratioP1;P2;durP2;ratioP2
44730;SDS011;30458;47.448;19.032;2022-10-23T00:04:23;1999.90;;;999.90;;
44730;SDS011;30458;47.448;19.032;2022-10-23T00:14:27;1999.90;;;999.90;;
44730;SDS011;30458;47.448;19.032;2022-10-23T00:24:27;1999.90;;;999.90;;
44730;SDS011;30458;47.448;19.032;2022-10-23T00:34:31;1999.90;;;999.90;;
44730;SDS011;30458;47.448;19.032;2022-10-23T00:54:33;1999.90;;;999.90;;
44730;SDS011;30458;47.448;19.032;2022-10-23T01:04:36;1999.90;;;999.90;;
44730;SDS011;30458;47.448;19.032;2022-10-23T01:25:02;1999.90;;;999.90;;
44730;SDS011;30458;47.448;19.032;2022-10-23T01:35:13;1999.90;;;999.90;;
44730;SDS011;30458;47.448;19.032;2022-10-23T01:45:31;1999.90;;;999.90;;
44730;SDS011;30458;47.448;19.032;2022-10-23T01:55:41;1999.90;;;999.90;;
44730;SDS011;30458;47.448;19.032;2022-10-23T02:05:49;1999.90;;;999.90;;
44730;SDS011;30458;47.448;19.032;2022-10-23T02:16:38;1999.90;;;999.90;;
44730;SDS011;30458;47.448;19.032;2022-10-23T02:26:37;1999.90;;;999.90;;
44730;SDS011;30458;47.448;19.032;2022-10-23T02:36:55;855.67;;;580.28;;
44730;SDS011;30458;47.448;19.032;2022-10-23T03:07:37;386.75;;;360.83;;
44730;SDS011;30458;47.448;19.032;2022-10-23T03:17:46;1999.90;;;999.90;;
44730;SDS011;30458;47.448;19.032;2022-10-23T03:27:48;1999.90;;;999.90;;
44730;SDS011;30458;47.448;19.032;2022-10-23T03:37:50;1999.90;;;999.90;;
44730;SDS011;30458;47.448;19.032;2022-10-23T03:47:51;1999.90;;;999.90;;
44730;SDS011;30458;47.448;19.032;2022-10-23T03:57:54;1999.90;;;999.90;;
44730;SDS011;30458;47.448;19.032;2022-10-23T04:07:57;1999.90;;;999.90;;
44730;SDS011;30458;47.448;19.032;2022-10-23T04:17:58;1999.90;;;999.90;;
44730;SDS011;30458;47.448;19.032;2022-10-23T04:28:04;1999.90;;;999.90;;
44730;SDS011;30458;47.448;19.032;2022-10-23T04:38:10;1999.90;;;999.90;;
44730;SDS011;30458;47.448;19.032;2022-10-23T04:48:11;1999.90;;;999.90;;
44730;SDS011;30458;47.448;19.032;2022-10-23T04:58:33;1999.90;;;999.90;;
44730;SDS011;30458;47.448;19.032;2022-10-23T05:08:35;1999.90;;;999.90;;
44730;SDS011;30458;47.448;19.032;2022-10-23T05:18:47;1999.90;;;999.90;;
44730;SDS011;30458;47.448;19.032;2022-10-23T05:28:48;1999.90;;;999.90;;
44730;SDS011;30458;47.448;19.032;2022-10-23T05:38:52;1999.90;;;999.90;;
44730;SDS011;30458;47.448;19.032;2022-10-23T05:48:54;312.55;;;292.60;;
44730;SDS011;30458;47.448;19.032;2022-10-23T05:58:57;295.23;;;275.20;;
44730;SDS011;30458;47.448;19.032;2022-10-23T06:09:07;144.68;;;136.15;;
44730;SDS011;30458;47.448;19.032;2022-10-23T06:19:12;118.13;;;110.93;;
44730;SDS011;30458;47.448;19.032;2022-10-23T06:29:15;217.77;;;204.65;;
44730;SDS011;30458;47.448;19.032;2022-10-23T06:39:17;203.07;;;190.77;;
44730;SDS011;30458;47.448;19.032;2022-10-23T06:49:32;348.27;;;323.55;;
44730;SDS011;30458;47.448;19.032;2022-10-23T06:59:35;367.33;;;342.63;;
44730;SDS011;30458;47.448;19.032;2022-10-23T07:09:39;302.15;;;281.83;;
44730;SDS011;30458;47.448;19.032;2022-10-23T07:20:18;501.67;;;457.98;;
44730;SDS011;30458;47.448;19.032;2022-10-23T07:30:23;384.75;;;357.98;;
44730;SDS011;30458;47.448;19.032;2022-10-23T07:40:27;358.23;;;334.08;;
44730;SDS011;30458;47.448;19.032;2022-10-23T07:50:30;228.15;;;215.27;;
44730;SDS011;30458;47.448;19.032;2022-10-23T08:00:30;281.10;;;265.23;;
44730;SDS011;30458;47.448;19.032;2022-10-23T08:10:45;974.47;;;903.45;;
44730;SDS011;30458;47.448;19.032;2022-10-23T08:20:52;1999.90;;;999.90;;
44730;SDS011;30458;47.448;19.032;2022-10-23T08:31:04;1999.90;;;999.90;;
44730;SDS011;30458;47.448;19.032;2022-10-23T08:51:44;624.28;;;579.45;;
44730;SDS011;30458;47.448;19.032;2022-10-23T09:01:58;643.88;;;597.53;;
44730;SDS011;30458;47.448;19.032;2022-10-23T09:12:08;905.75;;;619.05;;
44730;SDS011;30458;47.448;19.032;2022-10-23T09:22:14;1999.90;;;999.90;;
44730;SDS011;30458;47.448;19.032;2022-10-23T09:32:15;1999.90;;;999.90;;
44730;SDS011;30458;47.448;19.032;2022-10-23T09:42:22;1999.90;;;999.90;;
44730;SDS011;30458;47.448;19.032;2022-10-23T09:52:27;1999.90;;;999.90;;
44730;SDS011;30458;47.448;19.032;2022-10-23T10:02:35;1999.90;;;999.90;;
44730;SDS011;30458;47.448;19.032;2022-10-23T10:13:00;1999.90;;;999.90;;
44730;SDS011;30458;47.448;19.032;2022-10-23T10:23:37;1999.90;;;999.90;;
44730;SDS011;30458;47.448;19.032;2022-10-23T10:44:37;1999.90;;;999.90;;
44730;SDS011;30458;47.448;19.032;2022-10-23T10:54:52;917.65;;;827.45;;
44730;SDS011;30458;47.448;19.032;2022-10-23T11:05:20;1999.90;;;999.90;;
44730;SDS011;30458;47.448;19.032;2022-10-23T11:15:37;1999.90;;;999.90;;
44730;SDS011;30458;47.448;19.032;2022-10-23T11:35:51;1999.90;;;999.90;;
44730;SDS011;30458;47.448;19.032;2022-10-23T11:46:12;1999.90;;;999.90;;
44730;SDS011;30458;47.448;19.032;2022-10-23T11:56:24;1999.90;;;999.90;;
44730;SDS011;30458;47.448;19.032;2022-10-23T12:06:27;1999.90;;;999.90;;
44730;SDS011;30458;47.448;19.032;2022-10-23T12:16:35;1999.90;;;999.90;;
44730;SDS011;30458;47.448;19.032;2022-10-23T12:26:40;1999.90;;;999.90;;
44730;SDS011;30458;47.448;19.032;2022-10-23T12:47:02;1999.90;;;999.90;;
44730;SDS011;30458;47.448;19.032;2022-10-23T13:07:25;1999.90;;;999.90;;
44730;SDS011;30458;47.448;19.032;2022-10-23T13:17:42;1999.90;;;999.90;;
44730;SDS011;30458;47.448;19.032;2022-10-23T13:27:44;1999.90;;;999.90;;
44730;SDS011;30458;47.448;19.032;2022-10-23T13:37:45;1999.90;;;999.90;;
44730;SDS011;30458;47.448;19.032;2022-10-23T13:47:50;1999.90;;;999.90;;
44730;SDS011;30458;47.448;19.032;2022-10-23T13:57:51;1232.57;;;707.22;;
44730;SDS011;30458;47.448;19.032;2022-10-23T14:07:56;1999.90;;;999.90;;
44730;SDS011;30458;47.448;19.032;2022-10-23T14:18:03;1999.90;;;999.90;;
44730;SDS011;30458;47.448;19.032;2022-10-23T14:28:04;1999.90;;;999.90;;
44730;SDS011;30458;47.448;19.032;2022-10-23T14:38:07;985.92;;;888.17;;
44730;SDS011;30458;47.448;19.032;2022-10-23T14:48:11;927.05;;;836.97;;
44730;SDS011;30458;47.448;19.032;2022-10-23T14:58:13;883.50;;;804.15;;
44730;SDS011;30458;47.448;19.032;2022-10-23T15:08:19;899.00;;;816.05;;
44730;SDS011;30458;47.448;19.032;2022-10-23T15:18:20;867.90;;;789.53;;
44730;SDS011;30458;47.448;19.032;2022-10-23T15:28:24;888.58;;;807.25;;
44730;SDS011;30458;47.448;19.032;2022-10-23T15:38:26;984.47;;;879.75;;
44730;SDS011;30458;47.448;19.032;2022-10-23T15:48:26;974.58;;;870.45;;
44730;SDS011;30458;47.448;19.032;2022-10-23T15:58:27;984.47;;;877.57;;
44730;SDS011;30458;47.448;19.032;2022-10-23T16:08:31;986.63;;;884.40;;
44730;SDS011;30458;47.448;19.032;2022-10-23T16:18:34;1011.47;;;904.72;;
44730;SDS011;30458;47.448;19.032;2022-10-23T16:28:35;983.23;;;881.73;;
44730;SDS011;30458;47.448;19.032;2022-10-23T16:38:39;1156.65;;;841.83;;
44730;SDS011;30458;47.448;19.032;2022-10-23T16:48:40;1999.90;;;999.90;;
44730;SDS011;30458;47.448;19.032;2022-10-23T16:58:41;1999.90;;;999.90;;
44730;SDS011;30458;47.448;19.032;2022-10-23T17:08:43;1999.90;;;999.90;;
44730;SDS011;30458;47.448;19.032;2022-10-23T17:18:44;1083.97;;;596.03;;
44730;SDS011;30458;47.448;19.032;2022-10-23T17:28:48;1296.70;;;623.83;;
44730;SDS011;30458;47.448;19.032;2022-10-23T17:38:49;1999.90;;;999.90;;
44730;SDS011;30458;47.448;19.032;2022-10-23T17:48:52;1999.90;;;999.90;;
44730;SDS011;30458;47.448;19.032;2022-10-23T17:59:15;1999.90;;;999.90;;
44730;SDS011;30458;47.448;19.032;2022-10-23T18:09:20;1999.90;;;999.90;;
44730;SDS011;30458;47.448;19.032;2022-10-23T18:19:22;1999.90;;;999.90;;
44730;SDS011;30458;47.448;19.032;2022-10-23T18:29:25;1999.90;;;999.90;;
44730;SDS011;30458;47.448;19.032;2022-10-23T18:39:26;1999.90;;;999.90;;
44730;SDS011;30458;47.448;19.032;2022-10-23T18:49:30;952.00;;;863.20;;
44730;SDS011;30458;47.448;19.032;2022-10-23T18:59:30;913.43;;;825.53;;
44730;SDS011;30458;47.448;19.032;2022-10-23T19:09:34;900.65;;;814.90;;
44730;SDS011;30458;47.448;19.032;2022-10-23T19:19:39;936.25;;;841.90;;
44730;SDS011;30458;47.448;19.032;2022-10-23T19:39:49;1999.90;;;999.90;;
44730;SDS011;30458;47.448;19.032;2022-10-23T19:49:54;1999.90;;;999.90;;
44730;SDS011;30458;47.448;19.032;2022-10-23T19:59:55;1999.90;;;999.90;;
44730;SDS011;30458;47.448;19.032;2022-10-23T20:09:59;956.47;;;862.65;;
44730;SDS011;30458;47.448;19.032;2022-10-23T20:20:00;968.28;;;871.72;;
44730;SDS011;30458;47.448;19.032;2022-10-23T20:30:01;946.60;;;852.38;;
44730;SDS011;30458;47.448;19.032;2022-10-23T20:40:04;944.88;;;852.08;;
44730;SDS011;30458;47.448;19.032;2022-10-23T20:50:05;968.03;;;865.78;;
44730;SDS011;30458;47.448;19.032;2022-10-23T21:00:08;988.58;;;883.45;;
44730;SDS011;30458;47.448;19.032;2022-10-23T21:10:10;967.22;;;868.45;;
44730;SDS011;30458;47.448;19.032;2022-10-23T21:20:13;1999.90;;;999.90;;
44730;SDS011;30458;47.448;19.032;2022-10-23T21:30:13;1999.90;;;999.90;;
44730;SDS011;30458;47.448;19.032;2022-10-23T21:40:15;754.20;;;679.30;;
44730;SDS011;30458;47.448;19.032;2022-10-23T21:50:15;978.63;;;877.53;;
44730;SDS011;30458;47.448;19.032;2022-10-23T22:00:21;966.10;;;867.95;;
44730;SDS011;30458;47.448;19.032;2022-10-23T22:10:24;1239.53;;;912.38;;
44730;SDS011;30458;47.448;19.032;2022-10-23T22:20:28;1999.90;;;999.90;;
44730;SDS011;30458;47.448;19.032;2022-10-23T22:30:28;1402.13;;;861.03;;
44730;SDS011;30458;47.448;19.032;2022-10-23T22:40:34;984.17;;;882.85;;
44730;SDS011;30458;47.448;19.032;2022-10-23T22:50:40;982.35;;;878.17;;
44730;SDS011;30458;47.448;19.032;2022-10-23T23:00:44;973.05;;;872.63;;
44730;SDS011;30458;47.448;19.032;2022-10-23T23:10:51;1094.53;;;783.47;;
44730;SDS011;30458;47.448;19.032;2022-10-23T23:20:59;1455.38;;;909.50;;
44730;SDS011;30458;47.448;19.032;2022-10-23T23:31:26;1172.45;;;854.85;;
44730;SDS011;30458;47.448;19.032;2022-10-23T23:41:29;1999.90;;;999.90;;
44730;SDS011;30458;47.448;19.032;2022-10-23T23:51:32;1999.90;;;999.90;;
